sensor_id;sensor_type;location;lat;lon;timestamp;pressure;altitude;pressure_sealevel;temperature;humidity
10014;BME280;45684;48.358;10.746;2023-02-21T00:01:38;96681.75;;;6.55;100.00
10014;BME280;45684;48.358;10.746;2023-02-21T00:04:25;96688.84;;;6.31;100.00
10014;BME280;45684;48.358;10.746;2023-02-21T00:07:10;96689.19;;;6.14;100.00
10014;BME280;45684;48.358;10.746;2023-02-21T00:09:55;96682.50;;;6.01;100.00
10014;BME280;45684;48.358;10.746;2023-02-21T00:12:40;96682.28;;;5.77;100.00
10014;BME280;45684;48.358;10.746;2023-02-21T00:15:26;96679.94;;;5.60;100.00
10014;BME280;45684;48.358;10.746;2023-02-21T00:18:11;96676.69;;;5.58;100.00
10014;BME280;45684;48.358;10.746;2023-02-21T00:20:57;96678.59;;;5.58;100.00
10014;BME280;45684;48.358;10.746;2023-02-21T00:23:43;96674.84;;;5.44;100.00
10014;BME280;45684;48.358;10.746;2023-02-21T00:26:28;96666.03;;;5.33;100.00
10014;BME280;45684;48.358;10.746;2023-02-21T00:29:14;96672.72;;;5.20;100.00
10014;BME280;45684;48.358;10.746;2023-02-21T00:32:00;96677.81;;;5.11;100.00
10014;BME280;45684;48.358;10.746;2023-02-21T00:34:45;96674.34;;;5.01;100.00
10014;BME280;45684;48.358;10.746;2023-02-21T00:37:32;96671.91;;;4.94;100.00
10014;BME280;45684;48.358;10.746;2023-02-21T00:40:18;96666.56;;;4.79;100.00
10014;BME280;45684;48.358;10.746;2023-02-21T00:43:03;96671.09;;;4.53;100.00
10014;BME280;45684;48.358;10.746;2023-02-21T00:45:48;96662.97;;;4.27;100.00
10014;BME280;45684;48.358;10.746;2023-02-21T00:48:34;96661.06;;;4.18;100.00
10014;BME280;45684;48.358;10.746;2023-02-21T00:51:19;96662.19;;;4.32;100.00
10014;BME280;45684;48.358;10.746;2023-02-21T00:54:05;96658.47;;;4.43;100.00
10014;BME280;45684;48.358;10.746;2023-02-21T00:56:51;96652.59;;;4.51;100.00
10014;BME280;45684;48.358;10.746;2023-02-21T00:59:36;96650.44;;;4.43;100.00
10014;BME280;45684;48.358;10.746;2023-02-21T01:02:21;96655.81;;;4.43;100.00
10014;BME280;45684;48.358;10.746;2023-02-21T01:05:06;96655.81;;;4.48;100.00
10014;BME280;45684;48.358;10.746;2023-02-21T01:07:52;96651.47;;;4.37;100.00
10014;BME280;45684;48.358;10.746;2023-02-21T01:10:41;96642.91;;;4.35;100.00
10014;BME280;45684;48.358;10.746;2023-02-21T01:13:28;96646.69;;;4.34;100.00
10014;BME280;45684;48.358;10.746;2023-02-21T01:16:15;96649.88;;;4.31;100.00
10014;BME280;45684;48.358;10.746;2023-02-21T01:19:01;96648.50;;;4.23;100.00
10014;BME280;45684;48.358;10.746;2023-02-21T01:21:46;96643.94;;;4.19;100.00
10014;BME280;45684;48.358;10.746;2023-02-21T01:24:33;96641.00;;;4.20;100.00
10014;BME280;45684;48.358;10.746;2023-02-21T01:27:20;96644.72;;;4.14;100.00
10014;BME280;45684;48.358;10.746;2023-02-21T01:30:07;96636.94;;;4.02;100.00
10014;BME280;45684;48.358;10.746;2023-02-21T01:32:52;96632.69;;;4.12;100.00
10014;BME280;45684;48.358;10.746;2023-02-21T01:35:37;96630.00;;;4.12;100.00
10014;BME280;45684;48.358;10.746;2023-02-21T01:38:23;96632.13;;;4.04;100.00
10014;BME280;45684;48.358;10.746;2023-02-21T01:41:08;96627.53;;;3.95;100.00
10014;BME280;45684;48.358;10.746;2023-02-21T01:44:00;96624.81;;;3.79;100.00
10014;BME280;45684;48.358;10.746;2023-02-21T01:46:46;96621.09;;;3.86;100.00
10014;BME280;45684;48.358;10.746;2023-02-21T01:49:33;96622.13;;;3.79;100.00
10014;BME280;45684;48.358;10.746;2023-02-21T01:52:19;96617.28;;;3.71;100.00
10014;BME280;45684;48.358;10.746;2023-02-21T01:55:05;96614.06;;;3.64;100.00
10014;BME280;45684;48.358;10.746;2023-02-21T01:57:52;96618.84;;;3.62;100.00
10014;BME280;45684;48.358;10.746;2023-02-21T02:00:43;96611.59;;;3.57;100.00
10014;BME280;45684;48.358;10.746;2023-02-21T02:03:29;96619.59;;;3.52;100.00
10014;BME280;45684;48.358;10.746;2023-02-21T02:06:15;96609.50;;;3.60;100.00
10014;BME280;45684;48.358;10.746;2023-02-21T02:09:12;96612.06;;;3.44;100.00
10014;BME280;45684;48.358;10.746;2023-02-21T02:12:13;96610.78;;;3.52;100.00
10014;BME280;45684;48.358;10.746;2023-02-21T02:17:55;96603.56;;;3.52;100.00
10014;BME280;45684;48.358;10.746;2023-02-21T02:20:52;96606.72;;;3.44;100.00
10014;BME280;45684;48.358;10.746;2023-02-21T02:24:04;96609.38;;;3.39;100.00
10014;BME280;45684;48.358;10.746;2023-02-21T02:27:22;96605.13;;;3.43;100.00
10014;BME280;45684;48.358;10.746;2023-02-21T02:30:12;96604.56;;;3.36;100.00
10014;BME280;45684;48.358;10.746;2023-02-21T02:33:06;96599.09;;;3.21;100.00
10014;BME280;45684;48.358;10.746;2023-02-21T02:35:43;96599.84;;;3.11;100.00
10014;BME280;45684;48.358;10.746;2023-02-21T02:38:18;96594.50;;;3.11;100.00
10014;BME280;45684;48.358;10.746;2023-02-21T02:40:57;96592.03;;;2.99;100.00
10014;BME280;45684;48.358;10.746;2023-02-21T02:43:30;96589.91;;;3.01;100.00
10014;BME280;45684;48.358;10.746;2023-02-21T02:46:02;96599.16;;;2.89;100.00
10014;BME280;45684;48.358;10.746;2023-02-21T02:48:33;96590.41;;;2.98;100.00
10014;BME280;45684;48.358;10.746;2023-02-21T02:51:07;96597.34;;;2.94;100.00
10014;BME280;45684;48.358;10.746;2023-02-21T02:53:37;96592.19;;;2.83;100.00
10014;BME280;45684;48.358;10.746;2023-02-21T02:56:07;96593.50;;;2.80;100.00
10014;BME280;45684;48.358;10.746;2023-02-21T02:58:42;96592.19;;;2.83;100.00
10014;BME280;45684;48.358;10.746;2023-02-21T03:01:28;96601.09;;;2.61;100.00
10014;BME280;45684;48.358;10.746;2023-02-21T03:04:10;96591.78;;;2.64;100.00
10014;BME280;45684;48.358;10.746;2023-02-21T03:06:50;96596.34;;;2.68;100.00
10014;BME280;45684;48.358;10.746;2023-02-21T03:09:25;96603.31;;;2.42;100.00
10014;BME280;45684;48.358;10.746;2023-02-21T03:12:00;96595.97;;;2.54;100.00
10014;BME280;45684;48.358;10.746;2023-02-21T03:14:35;96604.53;;;2.57;100.00
10014;BME280;45684;48.358;10.746;2023-02-21T03:17:08;96590.94;;;2.58;100.00
10014;BME280;45684;48.358;10.746;2023-02-21T03:19:41;96596.56;;;2.62;100.00
10014;BME280;45684;48.358;10.746;2023-02-21T03:22:15;96595.16;;;2.54;100.00
10014;BME280;45684;48.358;10.746;2023-02-21T03:24:48;96595.97;;;2.54;100.00
10014;BME280;45684;48.358;10.746;2023-02-21T03:27:19;96598.09;;;2.52;100.00
10014;BME280;45684;48.358;10.746;2023-02-21T03:30:14;96607.75;;;2.59;100.00
10014;BME280;45684;48.358;10.746;2023-02-21T03:32:46;96605.34;;;2.57;100.00
10014;BME280;45684;48.358;10.746;2023-02-21T03:35:16;96601.34;;;2.60;100.00
10014;BME280;45684;48.358;10.746;2023-02-21T03:37:48;96601.00;;;2.51;100.00
10014;BME280;45684;48.358;10.746;2023-02-21T03:40:23;96602.81;;;2.45;100.00
10014;BME280;45684;48.358;10.746;2023-02-21T03:42:53;96598.69;;;2.33;100.00
10014;BME280;45684;48.358;10.746;2023-02-21T03:45:22;96591.63;;;2.16;100.00
10014;BME280;45684;48.358;10.746;2023-02-21T03:48:09;96592.09;;;2.13;100.00
10014;BME280;45684;48.358;10.746;2023-02-21T03:50:41;96598.28;;;2.19;100.00
10014;BME280;45684;48.358;10.746;2023-02-21T03:53:10;96595.19;;;2.27;100.00
10014;BME280;45684;48.358;10.746;2023-02-21T03:55:42;96594.03;;;2.18;100.00
10014;BME280;45684;48.358;10.746;2023-02-21T03:58:16;96591.78;;;2.10;100.00
10014;BME280;45684;48.358;10.746;2023-02-21T04:00:44;96587.13;;;1.95;100.00
10014;BME280;45684;48.358;10.746;2023-02-21T04:03:15;96590.75;;;1.84;100.00
10014;BME280;45684;48.358;10.746;2023-02-21T04:05:52;96588.94;;;1.89;100.00
10014;BME280;45684;48.358;10.746;2023-02-21T04:08:22;96589.94;;;1.83;100.00
10014;BME280;45684;48.358;10.746;2023-02-21T04:10:49;96591.28;;;1.86;100.00
10014;BME280;45684;48.358;10.746;2023-02-21T04:13:21;96594.09;;;1.96;100.00
10014;BME280;45684;48.358;10.746;2023-02-21T04:15:50;96591.97;;;1.98;100.00
10014;BME280;45684;48.358;10.746;2023-02-21T04:18:19;96592.66;;;1.88;100.00
10014;BME280;45684;48.358;10.746;2023-02-21T04:20:49;96598.03;;;1.93;100.00
10014;BME280;45684;48.358;10.746;2023-02-21T04:23:19;96594.25;;;1.89;100.00
10014;BME280;45684;48.358;10.746;2023-02-21T04:25:49;96585.47;;;1.89;100.00
10014;BME280;45684;48.358;10.746;2023-02-21T04:28:24;96586.69;;;1.81;100.00
10014;BME280;45684;48.358;10.746;2023-02-21T04:30:54;96584.03;;;1.81;100.00
10014;BME280;45684;48.358;10.746;2023-02-21T04:33:22;96584.03;;;1.81;100.00
10014;BME280;45684;48.358;10.746;2023-02-21T04:35:49;96582.34;;;1.97;100.00
10014;BME280;45684;48.358;10.746;2023-02-21T04:38:31;96583.75;;;2.04;100.00
10014;BME280;45684;48.358;10.746;2023-02-21T04:41:00;96581.09;;;2.04;100.00
10014;BME280;45684;48.358;10.746;2023-02-21T04:43:28;96585.44;;;2.11;100.00
10014;BME280;45684;48.358;10.746;2023-02-21T04:45:56;96585.94;;;2.08;100.00
10014;BME280;45684;48.358;10.746;2023-02-21T04:48:25;96583.31;;;2.13;100.00
10014;BME280;45684;48.358;10.746;2023-02-21T04:51:08;96587.94;;;2.22;100.00
10014;BME280;45684;48.358;10.746;2023-02-21T04:53:41;96594.53;;;2.15;100.00
10014;BME280;45684;48.358;10.746;2023-02-21T04:56:10;96592.38;;;2.12;100.00
10014;BME280;45684;48.358;10.746;2023-02-21T04:58:38;96581.88;;;2.05;100.00
10014;BME280;45684;48.358;10.746;2023-02-21T05:01:11;96582.16;;;2.03;100.00
10014;BME280;45684;48.358;10.746;2023-02-21T05:03:39;96573.34;;;2.03;100.00
10014;BME280;45684;48.358;10.746;2023-02-21T05:06:07;96572.03;;;2.06;100.00
10014;BME280;45684;48.358;10.746;2023-02-21T05:08:35;96569.31;;;2.00;100.00
10014;BME280;45684;48.358;10.746;2023-02-21T05:11:04;96571.63;;;1.92;100.00
10014;BME280;45684;48.358;10.746;2023-02-21T05:13:35;96567.44;;;1.74;100.00
10014;BME280;45684;48.358;10.746;2023-02-21T05:16:03;96566.88;;;1.72;100.00
10014;BME280;45684;48.358;10.746;2023-02-21T05:18:31;96559.28;;;1.59;100.00
10014;BME280;45684;48.358;10.746;2023-02-21T05:21:00;96563.56;;;1.60;100.00
10014;BME280;45684;48.358;10.746;2023-02-21T05:23:29;96556.78;;;1.74;100.00
10014;BME280;45684;48.358;10.746;2023-02-21T05:26:07;96550.88;;;1.72;100.00
10014;BME280;45684;48.358;10.746;2023-02-21T05:28:37;96555.97;;;1.51;100.00
10014;BME280;45684;48.358;10.746;2023-02-21T05:31:05;96545.97;;;1.59;100.00
10014;BME280;45684;48.358;10.746;2023-02-21T05:33:33;96554.50;;;1.61;100.00
10014;BME280;45684;48.358;10.746;2023-02-21T05:36:01;96544.53;;;1.51;100.00
10014;BME280;45684;48.358;10.746;2023-02-21T05:38:29;96546.28;;;1.40;100.00
10014;BME280;45684;48.358;10.746;2023-02-21T05:40:57;96547.38;;;1.44;100.00
10014;BME280;45684;48.358;10.746;2023-02-21T05:43:25;96552.84;;;1.55;100.00
10014;BME280;45684;48.358;10.746;2023-02-21T05:45:56;96552.69;;;1.66;100.00
10014;BME280;45684;48.358;10.746;2023-02-21T05:48:23;96556.72;;;1.69;100.00
10014;BME280;45684;48.358;10.746;2023-02-21T05:50:51;96550.66;;;1.73;100.00
10014;BME280;45684;48.358;10.746;2023-02-21T05:53:19;96554.97;;;1.79;100.00
10014;BME280;45684;48.358;10.746;2023-02-21T05:55:47;96566.69;;;1.78;100.00
10014;BME280;45684;48.358;10.746;2023-02-21T05:58:15;96563.22;;;1.78;100.00
10014;BME280;45684;48.358;10.746;2023-02-21T06:00:46;96561.38;;;1.78;100.00
10014;BME280;45684;48.358;10.746;2023-02-21T06:03:15;96557.16;;;1.83;100.00
10014;BME280;45684;48.358;10.746;2023-02-21T06:05:44;96555.81;;;1.85;100.00
10014;BME280;45684;48.358;10.746;2023-02-21T06:08:12;96554.22;;;1.84;100.00
10014;BME280;45684;48.358;10.746;2023-02-21T06:10:40;96556.84;;;1.79;100.00
10014;BME280;45684;48.358;10.746;2023-02-21T06:13:08;96563.19;;;1.73;100.00
10014;BME280;45684;48.358;10.746;2023-02-21T06:15:36;96563.66;;;1.70;100.00
10014;BME280;45684;48.358;10.746;2023-02-21T06:18:04;96565.53;;;1.69;100.00
10014;BME280;45684;48.358;10.746;2023-02-21T06:20:34;96558.34;;;1.70;100.00
10014;BME280;45684;48.358;10.746;2023-02-21T06:23:02;96564.25;;;1.77;100.00
10014;BME280;45684;48.358;10.746;2023-02-21T06:25:30;96566.13;;;1.76;100.00
10014;BME280;45684;48.358;10.746;2023-02-21T06:27:58;96571.88;;;1.63;100.00
10014;BME280;45684;48.358;10.746;2023-02-21T06:30:27;96570.59;;;1.49;100.00
10014;BME280;45684;48.358;10.746;2023-02-21T06:32:55;96577.84;;;1.53;100.00
10014;BME280;45684;48.358;10.746;2023-02-21T06:35:22;96576.31;;;1.58;100.00
10014;BME280;45684;48.358;10.746;2023-02-21T06:37:51;96570.53;;;1.66;100.00
10014;BME280;45684;48.358;10.746;2023-02-21T06:40:19;96575.31;;;1.64;100.00
10014;BME280;45684;48.358;10.746;2023-02-21T06:42:48;96577.19;;;1.63;100.00
10014;BME280;45684;48.358;10.746;2023-02-21T06:45:16;96579.97;;;1.73;100.00
10014;BME280;45684;48.358;10.746;2023-02-21T06:47:45;96586.69;;;1.81;100.00
10014;BME280;45684;48.358;10.746;2023-02-21T06:50:15;96578.84;;;1.91;100.00
10014;BME280;45684;48.358;10.746;2023-02-21T06:52:43;96585.25;;;1.95;100.00
10014;BME280;45684;48.358;10.746;2023-02-21T06:55:20;96584.75;;;1.98;100.00
10014;BME280;45684;48.358;10.746;2023-02-21T06:57:52;96592.75;;;1.98;100.00
10014;BME280;45684;48.358;10.746;2023-02-21T07:00:20;96599.69;;;1.99;100.00
10014;BME280;45684;48.358;10.746;2023-02-21T07:02:52;96600.31;;;2.07;100.00
10014;BME280;45684;48.358;10.746;2023-02-21T07:05:20;96598.00;;;2.15;100.00
10014;BME280;45684;48.358;10.746;2023-02-21T07:07:48;96596.94;;;2.16;100.00
10014;BME280;45684;48.358;10.746;2023-02-21T07:10:15;96608.72;;;2.20;100.00
10014;BME280;45684;48.358;10.746;2023-02-21T07:12:45;96603.75;;;2.29;100.00
10014;BME280;45684;48.358;10.746;2023-02-21T07:15:12;96602.72;;;2.35;100.00
10014;BME280;45684;48.358;10.746;2023-02-21T07:17:40;96611.88;;;2.44;100.00
10014;BME280;45684;48.358;10.746;2023-02-21T07:20:09;96608.78;;;2.52;100.00
10014;BME280;45684;48.358;10.746;2023-02-21T07:22:37;96604.56;;;2.62;100.00
10014;BME280;45684;48.358;10.746;2023-02-21T07:25:05;96604.91;;;2.70;100.00
10014;BME280;45684;48.358;10.746;2023-02-21T07:27:33;96602.56;;;2.79;100.00
10014;BME280;45684;48.358;10.746;2023-02-21T07:30:04;96602.09;;;2.87;100.00
10014;BME280;45684;48.358;10.746;2023-02-21T07:32:33;96600.53;;;2.91;100.00
10014;BME280;45684;48.358;10.746;2023-02-21T07:35:00;96603.53;;;3.00;100.00
10014;BME280;45684;48.358;10.746;2023-02-21T07:37:28;96601.72;;;3.11;100.00
10014;BME280;45684;48.358;10.746;2023-02-21T07:39:58;96600.44;;;3.18;100.00
10014;BME280;45684;48.358;10.746;2023-02-21T07:42:26;96600.19;;;3.25;100.00
10014;BME280;45684;48.358;10.746;2023-02-21T07:44:56;96608.03;;;3.37;100.00
10014;BME280;45684;48.358;10.746;2023-02-21T07:47:26;96599.78;;;3.48;100.00
10014;BME280;45684;48.358;10.746;2023-02-21T07:49:55;96603.59;;;3.57;100.00
10014;BME280;45684;48.358;10.746;2023-02-21T07:52:23;96610.84;;;3.67;100.00
10014;BME280;45684;48.358;10.746;2023-02-21T07:54:51;96616.22;;;3.77;100.00
10014;BME280;45684;48.358;10.746;2023-02-21T07:57:18;96610.94;;;3.88;100.00
10014;BME280;45684;48.358;10.746;2023-02-21T07:59:47;96620.88;;;3.97;100.00
10014;BME280;45684;48.358;10.746;2023-02-21T08:02:15;96615.53;;;4.07;100.00
10014;BME280;45684;48.358;10.746;2023-02-21T08:04:44;96616.13;;;4.20;100.00
10014;BME280;45684;48.358;10.746;2023-02-21T08:07:12;96616.16;;;4.30;100.00
10014;BME280;45684;48.358;10.746;2023-02-21T08:09:39;96617.47;;;4.43;100.00
10014;BME280;45684;48.358;10.746;2023-02-21T08:12:08;96607.63;;;4.53;100.00
10014;BME280;45684;48.358;10.746;2023-02-21T08:14:36;96603.59;;;4.66;100.00
10014;BME280;45684;48.358;10.746;2023-02-21T08:17:04;96596.91;;;4.79;100.00
10014;BME280;45684;48.358;10.746;2023-02-21T08:19:32;96596.88;;;4.94;100.00
10014;BME280;45684;48.358;10.746;2023-02-21T08:22:03;96607.59;;;5.09;100.00
10014;BME280;45684;48.358;10.746;2023-02-21T08:24:31;96605.97;;;5.24;100.00
10014;BME280;45684;48.358;10.746;2023-02-21T08:26:59;96613.69;;;5.41;100.00
10014;BME280;45684;48.358;10.746;2023-02-21T08:29:29;96606.94;;;5.58;100.00
10014;BME280;45684;48.358;10.746;2023-02-21T08:31:56;96608.78;;;5.73;100.00
10014;BME280;45684;48.358;10.746;2023-02-21T08:34:24;96612.75;;;5.91;100.00
10014;BME280;45684;48.358;10.746;2023-02-21T08:36:54;96614.31;;;6.07;100.00
10014;BME280;45684;48.358;10.746;2023-02-21T08:39:24;96612.63;;;6.22;100.00
10014;BME280;45684;48.358;10.746;2023-02-21T08:41:57;96606.09;;;6.38;100.00
10014;BME280;45684;48.358;10.746;2023-02-21T08:44:26;96610.81;;;6.56;100.00
10014;BME280;45684;48.358;10.746;2023-02-21T08:46:54;96617.69;;;6.73;100.00
10014;BME280;45684;48.358;10.746;2023-02-21T08:49:22;96612.47;;;6.86;100.00
10014;BME280;45684;48.358;10.746;2023-02-21T08:51:50;96615.03;;;7.02;100.00
10014;BME280;45684;48.358;10.746;2023-02-21T08:54:17;96623.75;;;7.18;100.00
10014;BME280;45684;48.358;10.746;2023-02-21T08:56:47;96617.66;;;7.36;100.00
10014;BME280;45684;48.358;10.746;2023-02-21T08:59:15;96615.91;;;7.50;100.00
10014;BME280;45684;48.358;10.746;2023-02-21T09:01:43;96616.56;;;7.66;100.00
10014;BME280;45684;48.358;10.746;2023-02-21T09:04:11;96615.28;;;7.82;100.00
10014;BME280;45684;48.358;10.746;2023-02-21T09:06:38;96613.75;;;8.00;100.00
10014;BME280;45684;48.358;10.746;2023-02-21T09:09:06;96615.66;;;8.18;100.00
10014;BME280;45684;48.358;10.746;2023-02-21T09:11:34;96614.94;;;8.32;100.00
10014;BME280;45684;48.358;10.746;2023-02-21T09:14:03;96620.47;;;8.46;100.00
10014;BME280;45684;48.358;10.746;2023-02-21T09:16:33;96619.22;;;8.57;100.00
10014;BME280;45684;48.358;10.746;2023-02-21T09:19:01;96620.59;;;8.73;100.00
10014;BME280;45684;48.358;10.746;2023-02-21T09:21:32;96628.03;;;8.81;100.00
10014;BME280;45684;48.358;10.746;2023-02-21T09:24:00;96625.09;;;8.97;100.00
10014;BME280;45684;48.358;10.746;2023-02-21T09:26:31;96612.81;;;9.04;100.00
10014;BME280;45684;48.358;10.746;2023-02-21T09:28:58;96612.94;;;9.13;100.00
10014;BME280;45684;48.358;10.746;2023-02-21T09:31:28;96615.66;;;9.27;100.00
10014;BME280;45684;48.358;10.746;2023-02-21T09:33:56;96613.81;;;9.41;98.42
10014;BME280;45684;48.358;10.746;2023-02-21T09:36:24;96604.72;;;9.51;97.55
10014;BME280;45684;48.358;10.746;2023-02-21T09:38:51;96612.22;;;9.54;97.09
10014;BME280;45684;48.358;10.746;2023-02-21T09:41:19;96607.94;;;9.66;95.42
10014;BME280;45684;48.358;10.746;2023-02-21T09:43:49;96613.63;;;9.79;95.41
10014;BME280;45684;48.358;10.746;2023-02-21T09:46:23;96610.13;;;9.92;94.19
10014;BME280;45684;48.358;10.746;2023-02-21T09:48:56;96619.47;;;10.00;93.68
10014;BME280;45684;48.358;10.746;2023-02-21T09:51:27;96613.03;;;10.09;92.93
10014;BME280;45684;48.358;10.746;2023-02-21T09:53:57;96614.72;;;10.19;95.08
10014;BME280;45684;48.358;10.746;2023-02-21T09:56:27;96620.16;;;10.33;94.57
10014;BME280;45684;48.358;10.746;2023-02-21T09:58:55;96609.00;;;10.48;94.91
10014;BME280;45684;48.358;10.746;2023-02-21T10:01:33;96612.97;;;10.64;93.07
10014;BME280;45684;48.358;10.746;2023-02-21T10:04:13;96610.03;;;10.75;94.02
10014;BME280;45684;48.358;10.746;2023-02-21T10:06:50;96614.28;;;10.89;92.60
10014;BME280;45684;48.358;10.746;2023-02-21T10:09:27;96615.94;;;10.99;86.74
10014;BME280;45684;48.358;10.746;2023-02-21T10:12:09;96619.81;;;11.07;80.05
10014;BME280;45684;48.358;10.746;2023-02-21T10:14:53;96615.94;;;11.21;79.27
10014;BME280;45684;48.358;10.746;2023-02-21T10:17:25;96612.69;;;11.33;75.67
10014;BME280;45684;48.358;10.746;2023-02-21T10:20:01;96614.66;;;11.50;76.08
10014;BME280;45684;48.358;10.746;2023-02-21T10:22:34;96610.13;;;11.68;75.26
10014;BME280;45684;48.358;10.746;2023-02-21T10:25:18;96617.66;;;11.80;70.82
10014;BME280;45684;48.358;10.746;2023-02-21T10:27:48;96612.84;;;11.99;71.53
10014;BME280;45684;48.358;10.746;2023-02-21T10:30:22;96603.78;;;12.12;71.23
10014;BME280;45684;48.358;10.746;2023-02-21T10:32:51;96604.78;;;12.34;69.82
10014;BME280;45684;48.358;10.746;2023-02-21T10:35:21;96608.16;;;12.48;68.33
10014;BME280;45684;48.358;10.746;2023-02-21T10:37:50;96613.78;;;12.60;66.29
10014;BME280;45684;48.358;10.746;2023-02-21T10:40:28;96605.47;;;12.74;64.23
10014;BME280;45684;48.358;10.746;2023-02-21T10:43:02;96609.97;;;12.87;63.20
10014;BME280;45684;48.358;10.746;2023-02-21T10:45:35;96612.47;;;13.10;62.79
10014;BME280;45684;48.358;10.746;2023-02-21T10:48:06;96598.88;;;13.18;60.26
10014;BME280;45684;48.358;10.746;2023-02-21T10:50:42;96606.09;;;13.32;58.55
10014;BME280;45684;48.358;10.746;2023-02-21T10:53:27;96591.84;;;13.43;57.46
10014;BME280;45684;48.358;10.746;2023-02-21T10:56:18;96599.91;;;13.69;53.61
10014;BME280;45684;48.358;10.746;2023-02-21T10:58:49;96591.31;;;13.97;53.83
10014;BME280;45684;48.358;10.746;2023-02-21T11:01:18;96581.31;;;14.18;52.38
10014;BME280;45684;48.358;10.746;2023-02-21T11:03:52;96583.31;;;14.30;50.75
10014;BME280;45684;48.358;10.746;2023-02-21T11:06:32;96575.09;;;14.39;50.42
10014;BME280;45684;48.358;10.746;2023-02-21T11:09:02;96576.31;;;14.50;49.38
10014;BME280;45684;48.358;10.746;2023-02-21T11:11:44;96577.72;;;14.56;48.76
10014;BME280;45684;48.358;10.746;2023-02-21T11:14:21;96575.75;;;14.65;48.33
10014;BME280;45684;48.358;10.746;2023-02-21T11:17:12;96568.41;;;14.78;48.02
10014;BME280;45684;48.358;10.746;2023-02-21T11:19:42;96562.16;;;14.77;47.50
10014;BME280;45684;48.358;10.746;2023-02-21T11:22:12;96564.88;;;14.98;47.52
10014;BME280;45684;48.358;10.746;2023-02-21T11:24:45;96561.72;;;15.09;47.29
10014;BME280;45684;48.358;10.746;2023-02-21T11:27:15;96553.63;;;15.21;47.21
10014;BME280;45684;48.358;10.746;2023-02-21T11:29:46;96554.84;;;15.23;47.24
10014;BME280;45684;48.358;10.746;2023-02-21T11:32:22;96544.88;;;15.27;47.34
10014;BME280;45684;48.358;10.746;2023-02-21T11:35:03;96540.97;;;15.49;46.49
10014;BME280;45684;48.358;10.746;2023-02-21T11:37:32;96544.25;;;15.55;46.16
10014;BME280;45684;48.358;10.746;2023-02-21T11:40:01;96534.97;;;15.68;46.09
10014;BME280;45684;48.358;10.746;2023-02-21T11:42:32;96536.78;;;15.64;47.63
10014;BME280;45684;48.358;10.746;2023-02-21T11:45:16;96527.94;;;15.92;45.90
10014;BME280;45684;48.358;10.746;2023-02-21T11:48:12;96525.19;;;16.04;44.12
10014;BME280;45684;48.358;10.746;2023-02-21T11:50:48;96516.81;;;16.09;43.00
10014;BME280;45684;48.358;10.746;2023-02-21T11:53:22;96513.91;;;16.30;43.25
10014;BME280;45684;48.358;10.746;2023-02-21T11:55:54;96511.06;;;16.26;43.44
10014;BME280;45684;48.358;10.746;2023-02-21T11:58:28;96514.16;;;16.25;42.44
10014;BME280;45684;48.358;10.746;2023-02-21T12:01:01;96505.84;;;16.21;43.00
10014;BME280;45684;48.358;10.746;2023-02-21T12:03:51;96501.53;;;16.32;42.65
10014;BME280;45684;48.358;10.746;2023-02-21T12:06:28;96497.41;;;16.26;41.81
10014;BME280;45684;48.358;10.746;2023-02-21T12:09:03;96493.56;;;16.27;42.27
10014;BME280;45684;48.358;10.746;2023-02-21T12:11:43;96492.00;;;16.54;42.39
10014;BME280;45684;48.358;10.746;2023-02-21T12:14:30;96490.81;;;16.68;41.72
10014;BME280;45684;48.358;10.746;2023-02-21T12:17:11;96483.50;;;16.44;41.81
10014;BME280;45684;48.358;10.746;2023-02-21T12:20:02;96483.75;;;16.39;41.33
10014;BME280;45684;48.358;10.746;2023-02-21T12:22:44;96478.72;;;16.41;41.73
10014;BME280;45684;48.358;10.746;2023-02-21T12:25:22;96473.03;;;16.46;41.63
10014;BME280;45684;48.358;10.746;2023-02-21T12:27:54;96463.59;;;16.71;42.08
10014;BME280;45684;48.358;10.746;2023-02-21T12:30:37;96462.63;;;16.92;41.66
10014;BME280;45684;48.358;10.746;2023-02-21T12:33:19;96461.66;;;17.00;40.78
10014;BME280;45684;48.358;10.746;2023-02-21T12:36:02;96459.41;;;17.18;40.69
10014;BME280;45684;48.358;10.746;2023-02-21T12:38:53;96457.28;;;17.43;40.62
10014;BME280;45684;48.358;10.746;2023-02-21T12:41:43;96438.69;;;17.32;41.31
10014;BME280;45684;48.358;10.746;2023-02-21T12:44:18;96437.06;;;17.16;40.82
10014;BME280;45684;48.358;10.746;2023-02-21T12:46:52;96438.03;;;16.92;41.68
10014;BME280;45684;48.358;10.746;2023-02-21T12:49:25;96429.69;;;17.16;41.80
10014;BME280;45684;48.358;10.746;2023-02-21T12:51:59;96420.94;;;17.11;41.36
10014;BME280;45684;48.358;10.746;2023-02-21T12:54:37;96423.94;;;17.05;41.94
10014;BME280;45684;48.358;10.746;2023-02-21T12:57:11;96413.63;;;16.99;41.53
10014;BME280;45684;48.358;10.746;2023-02-21T12:59:55;96417.78;;;17.24;41.81
10014;BME280;45684;48.358;10.746;2023-02-21T13:02:30;96409.13;;;17.38;41.97
10014;BME280;45684;48.358;10.746;2023-02-21T13:05:06;96410.00;;;17.42;42.98
10014;BME280;45684;48.358;10.746;2023-02-21T13:07:44;96402.88;;;17.38;41.49
10014;BME280;45684;48.358;10.746;2023-02-21T13:10:18;96393.34;;;17.31;41.93
10014;BME280;45684;48.358;10.746;2023-02-21T13:12:53;96392.66;;;17.03;41.90
10014;BME280;45684;48.358;10.746;2023-02-21T13:15:25;96384.44;;;17.19;41.79
10014;BME280;45684;48.358;10.746;2023-02-21T13:17:59;96381.81;;;17.22;41.65
10014;BME280;45684;48.358;10.746;2023-02-21T13:20:33;96376.16;;;17.31;42.37
10014;BME280;45684;48.358;10.746;2023-02-21T13:26:43;96367.44;;;17.25;42.07
10014;BME280;45684;48.358;10.746;2023-02-21T13:29:22;96366.28;;;17.26;42.24
10014;BME280;45684;48.358;10.746;2023-02-21T13:31:58;96366.72;;;16.97;42.21
10014;BME280;45684;48.358;10.746;2023-02-21T13:34:28;96356.25;;;16.99;42.58
10014;BME280;45684;48.358;10.746;2023-02-21T13:37:04;96348.75;;;16.96;41.94